createdAt,value
2017-03-01T00:01:06.171Z,63
2017-03-01T00:02:20.847Z,63
2017-03-01T00:03:35.860Z,63
2017-03-01T00:04:50.121Z,63
2017-03-01T00:06:04.639Z,63
2017-03-01T00:07:18.767Z,63
2017-03-01T00:08:33.215Z,63
2017-03-01T00:09:48.415Z,63
2017-03-01T00:11:03.070Z,62
2017-03-01T00:12:17.769Z,62
2017-03-01T00:13:32.925Z,63
2017-03-01T00:14:47.722Z,63
2017-03-01T00:16:01.918Z,63
2017-03-01T00:17:16.167Z,62
2017-03-01T00:18:31.489Z,62
2017-03-01T00:19:46.284Z,63
2017-03-01T00:21:01.940Z,62
2017-03-01T00:22:18.550Z,62
2017-03-01T00:23:34.373Z,63
2017-03-01T00:24:49.290Z,63
2017-03-01T00:26:05.270Z,63
2017-03-01T00:27:19.894Z,63
2017-03-01T00:28:36.215Z,63
2017-03-01T00:29:50.930Z,63
2017-03-01T00:31:07.076Z,63
2017-03-01T00:32:22.172Z,63
2017-03-01T00:33:38.054Z,63
2017-03-01T00:34:52.354Z,63
2017-03-01T00:36:07.617Z,63
2017-03-01T00:37:24.093Z,63
2017-03-01T00:38:41.961Z,63
2017-03-01T00:39:57.783Z,63
2017-03-01T00:41:12.674Z,63
2017-03-01T00:42:27.680Z,63
2017-03-01T00:43:43.182Z,63
2017-03-01T00:44:58.127Z,63
2017-03-01T00:46:13.915Z,63
2017-03-01T00:47:29.247Z,63
2017-03-01T00:48:44.945Z,63
2017-03-01T00:49:59.174Z,63
2017-03-01T00:51:13.385Z,63
2017-03-01T00:52:28.716Z,63
2017-03-01T00:53:44.542Z,63
2017-03-01T00:55:00.474Z,63
2017-03-01T00:56:16.452Z,63
2017-03-01T00:57:31.160Z,63
2017-03-01T00:58:46.725Z,63
2017-03-01T01:00:02.188Z,63
2017-03-01T01:01:17.045Z,63
2017-03-01T01:02:32.903Z,63
2017-03-01T01:03:47.197Z,63
2017-03-01T01:05:02.042Z,63
2017-03-01T01:06:17.227Z,63
2017-03-01T01:07:32.721Z,63
2017-03-01T01:08:47.605Z,62
2017-03-01T01:10:04.164Z,63
2017-03-01T01:11:21.594Z,62
2017-03-01T01:12:35.739Z,62
2017-03-01T01:13:50.980Z,63
2017-03-01T01:15:06.955Z,63
2017-03-01T01:16:24.549Z,62
2017-03-01T01:17:41.767Z,63
2017-03-01T01:18:57.215Z,62
2017-03-01T01:20:14.163Z,62
2017-03-01T01:21:29.860Z,63
2017-03-01T01:22:44.481Z,63
2017-03-01T01:24:00.042Z,63
2017-03-01T01:25:17.118Z,63
2017-03-01T01:26:32.167Z,63
2017-03-01T01:27:46.812Z,62
2017-03-01T01:29:03.018Z,63
2017-03-01T01:30:17.338Z,62
2017-03-01T01:31:31.849Z,62
2017-03-01T01:32:46.418Z,62
2017-03-01T01:34:01.380Z,62
2017-03-01T01:35:16.753Z,62
2017-03-01T01:36:31.773Z,62
2017-03-01T01:37:48.082Z,62
2017-03-01T01:39:03.467Z,62
2017-03-01T01:40:17.947Z,62
2017-03-01T01:41:32.831Z,62
2017-03-01T01:42:48.155Z,62
2017-03-01T01:44:02.327Z,62
2017-03-01T01:45:30.407Z,62
2017-03-01T01:46:45.126Z,63
2017-03-01T01:48:00.073Z,63
2017-03-01T01:49:15.040Z,63
2017-03-01T01:50:30.956Z,63
2017-03-01T01:51:45.722Z,63
2017-03-01T01:53:00.456Z,63
2017-03-01T01:54:29.586Z,63
2017-03-01T01:55:43.941Z,63
2017-03-01T01:57:01.947Z,63
2017-03-01T01:58:16.651Z,63
2017-03-01T01:59:46.047Z,63
2017-03-01T02:01:00.291Z,62
2017-03-01T02:02:15.083Z,62
2017-03-01T02:03:29.624Z,62
2017-03-01T02:04:44.397Z,62
2017-03-01T02:05:58.467Z,62
2017-03-01T02:07:13.002Z,63
2017-03-01T02:08:27.653Z,63
2017-03-01T02:09:41.803Z,63
2017-03-01T02:10:56.825Z,63
2017-03-01T02:12:14.042Z,63
2017-03-01T02:13:28.162Z,63
2017-03-01T02:14:43.330Z,63
2017-03-01T02:15:57.349Z,63
2017-03-01T02:17:11.710Z,63
2017-03-01T02:18:26.428Z,63
2017-03-01T02:19:40.810Z,63
2017-03-01T02:20:55.120Z,63
2017-03-01T02:22:10.145Z,63
2017-03-01T02:23:24.267Z,63
2017-03-01T02:24:38.404Z,63
2017-03-01T02:25:52.598Z,63
2017-03-01T02:27:07.526Z,63
2017-03-01T02:28:21.583Z,63
2017-03-01T02:29:35.635Z,63
2017-03-01T02:30:49.649Z,62
2017-03-01T02:32:03.921Z,62
2017-03-01T02:33:18.000Z,62
2017-03-01T02:34:32.440Z,62
2017-03-01T02:35:46.934Z,62
2017-03-01T02:37:00.948Z,62
2017-03-01T02:38:15.093Z,62
2017-03-01T02:39:30.422Z,62
2017-03-01T02:40:44.864Z,62
2017-03-01T02:41:58.882Z,62
2017-03-01T02:43:13.499Z,62
2017-03-01T02:44:28.024Z,62
2017-03-01T02:45:42.529Z,62
2017-03-01T02:46:57.551Z,62
2017-03-01T02:48:12.433Z,62
2017-03-01T02:49:27.113Z,62
2017-03-01T02:50:42.015Z,62
2017-03-01T02:51:56.060Z,62
2017-03-01T02:53:10.276Z,62
2017-03-01T02:54:24.275Z,62
2017-03-01T02:55:38.996Z,62
2017-03-01T02:56:53.695Z,62
2017-03-01T02:58:07.773Z,62
2017-03-01T02:59:21.933Z,62
2017-03-01T03:00:36.170Z,62
2017-03-01T03:01:50.307Z,62
2017-03-01T03:03:04.458Z,62
2017-03-01T03:04:18.554Z,62
2017-03-01T03:05:33.218Z,62
2017-03-01T03:06:53.539Z,62
2017-03-01T03:08:08.205Z,62
2017-03-01T03:09:22.345Z,62
2017-03-01T03:10:36.709Z,62
2017-03-01T03:11:51.024Z,62
2017-03-01T03:13:05.667Z,62
2017-03-01T03:14:21.955Z,62
2017-03-01T03:15:36.526Z,62
2017-03-01T03:16:51.184Z,62
2017-03-01T03:18:05.792Z,62
2017-03-01T03:19:19.761Z,62
2017-03-01T03:20:33.778Z,62
2017-03-01T03:21:47.988Z,62
2017-03-01T03:23:02.257Z,62
2017-03-01T03:24:16.414Z,62
2017-03-01T03:25:32.140Z,62
2017-03-01T03:26:46.385Z,62
2017-03-01T03:28:00.507Z,62
2017-03-01T03:29:14.495Z,62
2017-03-01T03:30:28.643Z,62
2017-03-01T03:31:43.455Z,62
2017-03-01T03:33:29.816Z,62
2017-03-01T03:34:43.868Z,62
2017-03-01T03:35:58.301Z,62
2017-03-01T03:37:12.443Z,62
2017-03-01T03:38:26.445Z,62
2017-03-01T03:39:40.840Z,62
2017-03-01T03:40:54.977Z,62
2017-03-01T03:42:09.505Z,62
2017-03-01T03:43:23.464Z,62
2017-03-01T03:44:37.465Z,62
2017-03-01T03:45:51.449Z,62
2017-03-01T03:47:05.640Z,62
2017-03-01T03:48:20.050Z,62
2017-03-01T03:49:34.897Z,62
2017-03-01T03:50:48.991Z,62
2017-03-01T03:52:03.130Z,62
2017-03-01T03:53:17.137Z,62
2017-03-01T03:54:31.239Z,62
2017-03-01T03:55:45.699Z,62
2017-03-01T03:56:59.888Z,63
2017-03-01T03:58:14.453Z,63
2017-03-01T03:59:29.593Z,63
2017-03-01T04:00:44.037Z,63
2017-03-01T04:01:58.478Z,63
2017-03-01T04:03:12.883Z,63
2017-03-01T04:04:27.013Z,63
2017-03-01T04:05:41.700Z,63
2017-03-01T04:06:55.701Z,63
2017-03-01T04:08:10.285Z,63
2017-03-01T04:09:24.380Z,63
2017-03-01T04:12:08.160Z,63
2017-03-01T04:13:22.243Z,63
2017-03-01T04:14:36.386Z,63
2017-03-01T04:15:50.981Z,63
2017-03-01T04:17:05.225Z,63
2017-03-01T04:18:20.055Z,63
2017-03-01T04:19:35.170Z,63
2017-03-01T04:20:49.362Z,63
2017-03-01T04:22:03.545Z,63
2017-03-01T04:23:17.960Z,63
2017-03-01T04:24:32.842Z,63
2017-03-01T04:25:46.997Z,63
2017-03-01T04:27:01.222Z,63
2017-03-01T04:28:15.741Z,63
2017-03-01T04:29:30.399Z,63
2017-03-01T04:30:45.213Z,63
2017-03-01T04:31:59.853Z,63
2017-03-01T04:33:16.466Z,63
2017-03-01T04:34:31.064Z,63
2017-03-01T04:35:45.639Z,63
2017-03-01T04:36:59.812Z,63
2017-03-01T04:38:14.528Z,63
2017-03-01T04:39:28.586Z,63
2017-03-01T04:40:42.805Z,63
2017-03-01T04:41:57.879Z,63
2017-03-01T04:43:12.653Z,63
2017-03-01T04:44:26.722Z,63
2017-03-01T04:45:40.930Z,63
2017-03-01T04:46:55.242Z,63
2017-03-01T04:48:09.452Z,63
2017-03-01T04:49:23.936Z,63
2017-03-01T04:50:38.555Z,63
2017-03-01T04:51:53.270Z,63
2017-03-01T04:53:09.578Z,63
2017-03-01T04:54:25.034Z,63
2017-03-01T04:55:40.061Z,63
2017-03-01T04:56:54.189Z,63
2017-03-01T04:58:09.780Z,63
2017-03-01T04:59:25.182Z,63
2017-03-01T05:00:40.722Z,63
2017-03-01T05:01:54.880Z,63
2017-03-01T05:03:09.468Z,63
2017-03-01T05:04:23.921Z,63
2017-03-01T05:05:39.655Z,63
2017-03-01T05:06:54.030Z,63
2017-03-01T05:08:08.264Z,63
2017-03-01T05:09:23.091Z,63
2017-03-01T05:10:37.210Z,63
2017-03-01T05:11:51.524Z,63
2017-03-01T05:13:06.825Z,63
2017-03-01T05:14:21.548Z,63
2017-03-01T05:15:35.712Z,63
2017-03-01T05:16:50.436Z,63
2017-03-01T05:18:05.943Z,63
2017-03-01T05:19:20.237Z,63
2017-03-01T05:20:36.005Z,63
2017-03-01T05:21:51.302Z,63
2017-03-01T05:23:05.915Z,63
2017-03-01T05:24:20.471Z,63
2017-03-01T05:25:35.228Z,63
2017-03-01T05:26:49.492Z,63
2017-03-01T05:28:03.658Z,63
2017-03-01T05:29:17.913Z,63
2017-03-01T05:30:32.057Z,63
2017-03-01T05:31:46.895Z,63
2017-03-01T05:33:00.990Z,63
2017-03-01T05:34:15.084Z,63
2017-03-01T05:35:29.323Z,63
2017-03-01T05:36:43.937Z,63
2017-03-01T05:37:59.983Z,63
2017-03-01T05:39:15.141Z,63
2017-03-01T05:40:32.424Z,63
2017-03-01T05:41:51.373Z,63
2017-03-01T05:43:10.477Z,63
2017-03-01T05:44:32.179Z,63
2017-03-01T05:45:54.257Z,63
2017-03-01T05:47:15.096Z,63
2017-03-01T05:48:33.918Z,63
2017-03-01T05:49:55.107Z,63
2017-03-01T05:51:21.931Z,63
2017-03-01T05:52:45.030Z,63
2017-03-01T05:54:06.857Z,63
2017-03-01T05:55:27.510Z,63
2017-03-01T05:56:49.683Z,63
2017-03-01T05:58:07.700Z,63
2017-03-01T05:59:26.214Z,63
2017-03-01T06:00:42.615Z,63
2017-03-01T06:01:57.236Z,63
2017-03-01T06:03:11.755Z,63
2017-03-01T06:04:26.236Z,63
2017-03-01T06:05:40.993Z,63
2017-03-01T06:06:55.139Z,63
2017-03-01T06:08:09.250Z,63
2017-03-01T06:09:24.245Z,63
2017-03-01T06:10:38.293Z,63
2017-03-01T06:11:52.343Z,63
2017-03-01T06:13:07.739Z,63
2017-03-01T06:14:21.962Z,63
2017-03-01T06:15:36.490Z,63
2017-03-01T06:16:51.667Z,63
2017-03-01T06:18:07.066Z,63
2017-03-01T06:19:22.455Z,63
2017-03-01T06:20:38.178Z,63
2017-03-01T06:21:53.323Z,63
2017-03-01T06:23:08.363Z,63
2017-03-01T06:24:23.350Z,63
2017-03-01T06:25:37.593Z,63
2017-03-01T06:26:52.707Z,63
2017-03-01T06:28:07.352Z,63
2017-03-01T06:29:21.932Z,63
2017-03-01T06:30:36.420Z,63
2017-03-01T06:31:50.694Z,63
2017-03-01T06:33:06.155Z,63
2017-03-01T06:34:20.185Z,63
2017-03-01T06:35:34.788Z,63
2017-03-01T06:36:48.879Z,63
2017-03-01T06:38:03.465Z,63
2017-03-01T06:39:18.578Z,63
2017-03-01T06:40:33.087Z,63
2017-03-01T06:41:47.185Z,63
2017-03-01T06:43:01.882Z,63
2017-03-01T06:44:16.244Z,63
2017-03-01T06:45:30.390Z,63
2017-03-01T06:46:45.431Z,63
2017-03-01T06:48:00.071Z,63
2017-03-01T06:49:14.328Z,63
2017-03-01T06:50:29.712Z,63
2017-03-01T06:51:44.351Z,63
2017-03-01T06:52:58.596Z,63
2017-03-01T06:54:13.104Z,63
2017-03-01T06:55:28.434Z,63
2017-03-01T06:56:42.974Z,63
2017-03-01T06:57:58.080Z,63
2017-03-01T06:59:12.332Z,63
2017-03-01T07:00:26.981Z,63
2017-03-01T07:01:41.484Z,63
2017-03-01T07:02:55.603Z,63
2017-03-01T07:04:09.684Z,63
2017-03-01T07:05:24.839Z,63
2017-03-01T07:06:40.418Z,63
2017-03-01T07:07:55.437Z,63
2017-03-01T07:09:12.334Z,63
2017-03-01T07:10:26.516Z,64
2017-03-01T07:11:41.091Z,64
2017-03-01T07:12:55.083Z,63
2017-03-01T07:14:08.721Z,63
2017-03-01T07:15:22.891Z,63
2017-03-01T07:16:38.560Z,63
2017-03-01T07:17:52.666Z,63
2017-03-01T07:19:07.672Z,63
2017-03-01T07:20:23.070Z,63
2017-03-01T07:21:38.331Z,63
2017-03-01T07:22:52.919Z,63
2017-03-01T07:24:07.048Z,63
2017-03-01T07:25:21.170Z,63
2017-03-01T07:26:36.725Z,63
2017-03-01T07:27:51.269Z,63
2017-03-01T07:29:06.600Z,63
2017-03-01T07:30:21.213Z,63
2017-03-01T07:31:36.258Z,63
2017-03-01T07:32:51.819Z,63
2017-03-01T07:34:07.795Z,63
2017-03-01T07:35:22.893Z,63
2017-03-01T07:36:37.754Z,63
2017-03-01T07:37:52.501Z,63
2017-03-01T07:39:07.240Z,63
2017-03-01T07:40:21.963Z,63
2017-03-01T07:41:37.488Z,63
2017-03-01T07:42:51.551Z,63
2017-03-01T07:44:07.118Z,63
2017-03-01T07:45:21.468Z,63
2017-03-01T07:46:36.197Z,63
2017-03-01T07:47:50.268Z,63
2017-03-01T07:49:05.092Z,63
2017-03-01T07:50:19.965Z,63
2017-03-01T07:51:35.195Z,63
2017-03-01T07:52:49.919Z,63
2017-03-01T07:54:04.930Z,63
2017-03-01T07:55:20.997Z,63
2017-03-01T07:57:07.619Z,63
2017-03-01T07:58:22.752Z,64
2017-03-01T07:59:36.830Z,64
2017-03-01T08:01:35.227Z,64
2017-03-01T08:02:50.258Z,64
2017-03-01T08:04:05.003Z,64
2017-03-01T08:05:19.666Z,64
2017-03-01T08:06:34.398Z,64
2017-03-01T08:07:49.194Z,64
2017-03-01T08:09:03.304Z,64
2017-03-01T08:10:17.640Z,64
2017-03-01T08:11:32.388Z,64
2017-03-01T08:12:47.048Z,64
2017-03-01T08:14:01.858Z,64
2017-03-01T08:15:16.512Z,64
2017-03-01T08:16:31.212Z,64
2017-03-01T08:17:45.898Z,64
2017-03-01T08:19:00.002Z,64
2017-03-01T08:20:15.653Z,64
2017-03-01T08:21:30.442Z,64
2017-03-01T08:22:45.189Z,64
2017-03-01T08:24:00.104Z,64
2017-03-01T08:25:15.807Z,64
2017-03-01T08:26:30.248Z,64
2017-03-01T08:27:47.551Z,64
2017-03-01T08:29:03.185Z,64
2017-03-01T08:30:18.296Z,65
2017-03-01T08:31:33.002Z,65
2017-03-01T08:32:47.539Z,65
2017-03-01T08:34:02.231Z,65
2017-03-01T08:35:17.274Z,65
2017-03-01T08:36:31.643Z,65
2017-03-01T08:37:45.818Z,65
2017-03-01T08:39:00.287Z,65
2017-03-01T08:40:15.726Z,65
2017-03-01T08:41:30.234Z,65
2017-03-01T08:42:44.614Z,65
2017-03-01T08:43:58.898Z,65
2017-03-01T08:45:14.137Z,65
2017-03-01T08:46:28.993Z,65
2017-03-01T08:47:43.187Z,65
2017-03-01T08:48:59.031Z,65
2017-03-01T08:50:13.752Z,65
2017-03-01T08:51:28.890Z,65
2017-03-01T08:52:43.386Z,65
2017-03-01T08:53:58.324Z,65
2017-03-01T08:55:13.740Z,65
2017-03-01T08:56:28.335Z,65
2017-03-01T08:57:42.361Z,65
2017-03-01T08:58:56.871Z,65
2017-03-01T09:00:12.112Z,65
2017-03-01T09:01:26.247Z,65
2017-03-01T09:02:40.854Z,65
2017-03-01T09:03:54.911Z,65
2017-03-01T09:05:09.462Z,65
2017-03-01T09:06:24.503Z,65
2017-03-01T09:07:39.622Z,65
2017-03-01T09:08:54.511Z,65
2017-03-01T09:10:09.134Z,65
2017-03-01T09:11:23.173Z,65
2017-03-01T09:12:37.405Z,65
2017-03-01T09:13:52.009Z,65
2017-03-01T09:15:06.670Z,65
2017-03-01T09:16:20.811Z,65
2017-03-01T09:17:35.091Z,65
2017-03-01T09:18:49.643Z,65
2017-03-01T09:20:04.795Z,65
2017-03-01T09:21:18.892Z,65
2017-03-01T09:22:34.184Z,65
2017-03-01T09:23:48.367Z,65
2017-03-01T09:25:03.355Z,65
2017-03-01T09:26:17.539Z,65
2017-03-01T09:27:32.129Z,65
2017-03-01T09:28:47.043Z,65
2017-03-01T09:30:02.316Z,65
2017-03-01T09:31:17.519Z,65
2017-03-01T09:32:32.696Z,66
2017-03-01T09:33:46.811Z,66
2017-03-01T09:35:02.403Z,65
2017-03-01T09:36:16.926Z,65
2017-03-01T09:37:32.319Z,65
2017-03-01T09:38:46.892Z,65
2017-03-01T09:40:01.186Z,65
2017-03-01T09:41:17.307Z,65
2017-03-01T09:42:32.047Z,65
2017-03-01T09:43:47.061Z,65
2017-03-01T09:45:04.570Z,66
2017-03-01T09:46:19.735Z,66
2017-03-01T09:47:34.252Z,66
2017-03-01T09:48:49.690Z,66
2017-03-01T09:50:03.996Z,66
2017-03-01T09:51:18.534Z,66
2017-03-01T09:52:32.665Z,66
2017-03-01T09:53:49.667Z,66
2017-03-01T09:55:04.150Z,66
2017-03-01T09:56:19.162Z,66
2017-03-01T09:57:34.348Z,66
2017-03-01T09:58:49.227Z,66
2017-03-01T10:00:03.362Z,66
2017-03-01T10:01:17.909Z,66
2017-03-01T10:02:32.680Z,66
2017-03-01T10:03:47.268Z,66
2017-03-01T10:05:01.939Z,66
2017-03-01T10:06:16.080Z,66
2017-03-01T10:07:30.095Z,66
2017-03-01T10:08:44.780Z,66
2017-03-01T10:09:58.920Z,66
2017-03-01T10:11:13.589Z,66
2017-03-01T10:12:27.765Z,66
2017-03-01T10:13:43.291Z,66
2017-03-01T10:14:57.389Z,66
2017-03-01T10:16:12.134Z,66
2017-03-01T10:17:26.587Z,66
2017-03-01T10:18:40.812Z,66
2017-03-01T10:19:54.995Z,66
2017-03-01T10:21:09.539Z,66
2017-03-01T10:22:23.838Z,66
2017-03-01T10:23:38.090Z,66
2017-03-01T10:24:53.116Z,66
2017-03-01T10:26:08.145Z,66
2017-03-01T10:27:22.953Z,67
2017-03-01T10:28:37.250Z,67
2017-03-01T10:29:51.443Z,67
2017-03-01T10:31:06.077Z,67
2017-03-01T10:32:20.872Z,67
2017-03-01T10:33:35.547Z,67
2017-03-01T10:34:50.199Z,67
2017-03-01T10:36:04.354Z,67
2017-03-01T10:37:19.126Z,67
2017-03-01T10:38:34.250Z,67
2017-03-01T10:39:48.998Z,67
2017-03-01T10:41:03.629Z,67
2017-03-01T10:42:17.834Z,67
2017-03-01T10:43:32.427Z,67
2017-03-01T10:44:47.534Z,67
2017-03-01T10:46:01.650Z,67
2017-03-01T10:47:15.880Z,67
2017-03-01T10:48:30.573Z,67
2017-03-01T10:49:45.033Z,67
2017-03-01T10:50:59.707Z,67
2017-03-01T10:52:14.834Z,67
2017-03-01T10:53:29.033Z,67
2017-03-01T10:54:47.686Z,67
2017-03-01T10:56:02.368Z,67
2017-03-01T10:57:17.488Z,67
2017-03-01T10:58:31.652Z,67
2017-03-01T10:59:46.242Z,68
2017-03-01T11:01:00.283Z,68
2017-03-01T11:02:18.447Z,68
2017-03-01T11:03:33.012Z,68
2017-03-01T11:04:47.078Z,68
2017-03-01T11:06:02.508Z,68
2017-03-01T11:07:17.152Z,68
2017-03-01T11:08:31.724Z,68
2017-03-01T11:09:45.767Z,68
2017-03-01T11:11:00.030Z,68
2017-03-01T11:12:15.842Z,68
2017-03-01T11:13:30.716Z,68
2017-03-01T11:14:45.723Z,68
2017-03-01T11:16:01.289Z,68
2017-03-01T11:17:15.985Z,68
2017-03-01T11:18:30.595Z,69
2017-03-01T11:19:45.684Z,69
2017-03-01T11:21:03.292Z,69
2017-03-01T11:22:18.527Z,69
2017-03-01T11:23:35.034Z,69
2017-03-01T11:24:50.883Z,69
2017-03-01T11:26:06.978Z,69
2017-03-01T11:27:21.657Z,69
2017-03-01T11:28:36.961Z,69
2017-03-01T11:29:51.971Z,69
2017-03-01T11:31:06.483Z,69
2017-03-01T11:32:20.541Z,69
2017-03-01T11:33:35.553Z,69
2017-03-01T11:34:49.579Z,69
2017-03-01T11:36:05.311Z,69
2017-03-01T11:37:19.646Z,69
2017-03-01T11:38:34.114Z,69
2017-03-01T11:39:48.816Z,69
2017-03-01T11:41:03.874Z,69
2017-03-01T11:42:18.136Z,69
2017-03-01T11:43:33.664Z,69
2017-03-01T11:44:49.353Z,69
2017-03-01T11:46:05.230Z,69
2017-03-01T11:47:20.927Z,69
2017-03-01T11:48:36.643Z,69
2017-03-01T11:49:52.460Z,68
2017-03-01T11:51:08.123Z,69
2017-03-01T11:52:24.289Z,69
2017-03-01T11:53:39.578Z,69
2017-03-01T11:54:54.880Z,69
2017-03-01T11:56:09.166Z,69
2017-03-01T11:57:23.227Z,69
2017-03-01T11:58:38.280Z,69
2017-03-01T11:59:53.096Z,69
2017-03-01T12:01:08.494Z,69
2017-03-01T12:02:23.601Z,69
2017-03-01T12:03:38.223Z,69
2017-03-01T12:04:54.002Z,69
2017-03-01T12:06:08.542Z,69
2017-03-01T12:07:23.110Z,69
2017-03-01T12:08:37.526Z,69
2017-03-01T12:09:51.791Z,69
2017-03-01T12:11:07.278Z,69
2017-03-01T12:12:21.444Z,69
2017-03-01T12:13:35.647Z,69
2017-03-01T12:14:49.656Z,69
2017-03-01T12:16:04.255Z,69
2017-03-01T12:17:18.336Z,69
2017-03-01T12:18:32.917Z,69
2017-03-01T12:19:49.846Z,69
2017-03-01T12:21:04.157Z,69
2017-03-01T12:22:18.868Z,69
2017-03-01T12:23:33.106Z,69
2017-03-01T12:24:47.942Z,69
2017-03-01T12:26:02.510Z,69
2017-03-01T12:27:17.828Z,69
2017-03-01T12:28:31.860Z,69
2017-03-01T12:29:46.570Z,69
2017-03-01T12:31:01.165Z,69
2017-03-01T12:32:17.800Z,69
2017-03-01T12:33:33.396Z,69
2017-03-01T12:34:48.647Z,69
2017-03-01T12:36:03.287Z,69
2017-03-01T12:37:18.103Z,69
2017-03-01T12:38:33.655Z,69
2017-03-01T12:39:49.439Z,69
2017-03-01T12:41:04.706Z,69
2017-03-01T12:42:21.368Z,69
2017-03-01T12:43:36.462Z,69
2017-03-01T12:44:51.815Z,69
2017-03-01T12:46:06.822Z,69
2017-03-01T12:47:22.399Z,68
2017-03-01T12:48:37.672Z,68
2017-03-01T12:49:53.196Z,68
2017-03-01T12:51:07.724Z,68
2017-03-01T12:52:23.293Z,68
